Time;durP1;ratioP1;P1;durP2;ratioP2;P2;SDS_P1;SDS_P2;PMS_P1;PMS_P2;Temp;Humidity;BMP_temperature;BMP_pressure;BME280_temperature;BME280_humidity;BME280_pressure;Samples;Min_cycle;Max_cycle;Signal;HPM_P1;HPM_P2
2021/08/23 00:01:15;;;;;;;19.67;11.88;;;;;;;20.58;91.01;101637.48;1688045;85;20987;-91
2021/08/23 00:03:41;;;;;;;23.57;12.33;;;;;;;20.55;91.12;101637.25;1687975;85;20987;-91
2021/08/23 00:06:08;;;;;;;16.23;12.93;;;;;;;20.52;91.22;101632.26;1688014;85;21565;-90
2021/08/23 00:08:35;;;;;;;17.92;12.47;;;;;;;20.50;91.34;101632.91;1688094;85;21002;-90
2021/08/23 00:11:02;;;;;;;16.82;11.78;;;;;;;20.46;91.69;101630.19;1687896;85;21119;-89
2021/08/23 00:13:28;;;;;;;15.32;12.00;;;;;;;20.43;92.07;101630.95;1687839;85;21076;-89
2021/08/23 00:15:57;;;;;;;22.32;12.37;;;;;;;20.41;92.33;101631.59;1687981;85;20999;-89
2021/08/23 00:18:25;;;;;;;21.23;12.68;;;;;;;20.40;92.30;101631.24;1687630;85;20982;-89
2021/08/23 00:21:01;;;;;;;30.77;11.93;;;;;;;20.37;92.24;101627.09;1687838;85;21442;-89
2021/08/23 00:23:25;;;;;;;37.08;13.20;;;;;;;20.35;92.35;101622.94;1687386;85;21136;-89
2021/08/23 00:25:52;;;;;;;44.08;13.90;;;;;;;20.33;92.61;101627.02;1687909;85;20944;-90
2021/08/23 00:28:21;;;;;;;31.65;12.82;;;;;;;20.32;92.64;101620.11;1687925;85;21447;-89
2021/08/23 00:30:52;;;;;;;38.25;12.95;;;;;;;20.34;92.55;101623.90;1687950;85;20940;-93
2021/08/23 00:33:45;;;;;;;28.60;12.18;;;;;;;20.34;92.45;101625.22;1690420;85;20959;-89
2021/08/23 00:36:12;;;;;;;19.15;12.60;;;;;;;20.34;92.11;101623.42;1669400;85;21167;-92
2021/08/23 00:38:42;;;;;;;16.27;12.98;;;;;;;20.31;91.82;101622.38;1689202;82;20857;-90
2021/08/23 00:41:09;;;;;;;14.83;11.53;;;;;;;20.28;91.65;101627.10;1688142;83;20990;-92
2021/08/23 00:43:37;;;;;;;15.53;11.85;;;;;;;20.23;91.75;101624.84;1687808;85;21054;-91
2021/08/23 00:46:04;;;;;;;17.25;11.80;;;;;;;20.21;91.79;101624.16;1687914;85;20896;-90
2021/08/23 00:48:33;;;;;;;25.30;12.85;;;;;;;20.20;91.86;101626.95;1688029;85;21131;-92
2021/08/23 00:51:03;;;;;;;28.52;13.35;;;;;;;20.20;91.98;101622.48;1688104;85;20900;-93
2021/08/23 00:53:29;;;;;;;23.42;12.30;;;;;;;20.20;91.90;101622.48;1688367;85;20995;-93
2021/08/23 00:55:56;;;;;;;19.87;13.05;;;;;;;20.20;91.88;101623.00;1688320;85;20913;-92
2021/08/23 00:58:25;;;;;;;21.85;13.22;;;;;;;20.17;91.71;101617.50;1688646;85;20931;-93
2021/08/23 01:01:05;;;;;;;20.70;12.75;;;;;;;20.15;91.48;101617.30;1688320;85;21126;-91
2021/08/23 01:03:39;;;;;;;18.55;11.70;;;;;;;20.14;91.40;101616.46;1687915;85;20998;-91
2021/08/23 01:06:07;;;;;;;21.65;12.28;;;;;;;20.14;91.52;101623.05;1687939;85;20996;-89
2021/08/23 01:08:40;;;;;;;17.70;11.97;;;;;;;20.12;91.62;101611.83;1687795;85;21087;-90
2021/08/23 01:11:11;;;;;;;26.70;12.88;;;;;;;20.13;91.63;101615.30;1687976;85;21048;-89
2021/08/23 01:13:44;;;;;;;;;;;;;;;20.12;91.30;101617.09;1690518;85;21129;-89
2021/08/23 01:16:11;;;;;;;14.47;11.63;;;;;;;20.11;90.93;101618.53;1687883;85;20123;-89
2021/08/23 01:18:38;;;;;;;28.00;12.10;;;;;;;20.06;91.05;101614.55;1687800;85;21022;-90
2021/08/23 01:21:07;;;;;;;13.60;10.88;;;;;;;20.03;91.14;101606.91;1687977;85;21573;-88
2021/08/23 01:23:41;;;;;;;17.30;10.78;;;;;;;20.02;91.07;101607.88;1688131;85;21522;-90
2021/08/23 01:26:11;;;;;;;14.58;10.70;;;;;;;20.03;90.60;101608.71;1687944;85;21185;-89
2021/08/23 01:29:06;;;;;;;15.45;10.82;;;;;;;20.03;90.09;101616.62;1688040;85;20940;-92
2021/08/23 01:32:02;;;;;;;17.87;10.65;;;;;;;20.03;89.16;101608.23;1666243;85;20956;-92
2021/08/23 01:34:30;;;;;;;25.52;11.53;;;;;;;20.02;87.92;101602.61;1688356;85;21458;-94
2021/08/23 01:36:57;;;;;;;12.47;10.70;;;;;;;20.01;87.26;101613.27;1688161;85;20912;-91
2021/08/23 01:39:24;;;;;;;16.95;10.78;;;;;;;19.99;86.93;101610.80;1688049;85;22850;-90
2021/08/23 01:41:52;;;;;;;14.55;10.40;;;;;;;19.98;87.10;101613.07;1692840;83;21415;-90
2021/08/23 01:44:18;;;;;;;12.37;10.55;;;;;;;19.98;87.03;101613.07;1703373;84;20951;-90
2021/08/23 01:46:45;;;;;;;13.28;9.93;;;;;;;19.98;86.86;101613.55;1703399;84;21045;-90
2021/08/23 01:49:11;;;;;;;13.15;10.30;;;;;;;19.99;86.71;101613.91;1703194;84;21018;-90
2021/08/23 01:51:38;;;;;;;14.93;10.72;;;;;;;19.97;86.37;101613.22;1703388;84;21084;-91
2021/08/23 01:54:08;;;;;;;13.13;10.50;;;;;;;19.97;85.93;101620.62;1703284;84;20951;-90
2021/08/23 01:56:35;;;;;;;15.83;9.08;;;;;;;19.95;85.85;101623.05;1703105;84;21036;-89
2021/08/23 01:59:03;;;;;;;19.95;11.60;;;;;;;19.95;85.63;101625.20;1703024;84;21476;-88
2021/08/23 02:01:30;;;;;;;17.82;10.32;;;;;;;19.94;85.42;101624.84;1703313;84;21449;-88
2021/08/23 02:03:58;;;;;;;12.47;9.75;;;;;;;19.96;85.26;101623.41;1703253;84;21525;-88
2021/08/23 02:06:24;;;;;;;12.58;10.08;;;;;;;19.91;84.34;101612.47;1703159;84;20935;-89
2021/08/23 02:08:51;;;;;;;16.57;8.45;;;;;;;19.87;83.89;101613.70;1703509;84;21529;-90
2021/08/23 02:11:18;;;;;;;14.68;8.93;;;;;;;19.85;83.64;101616.94;1703252;84;20995;-90
2021/08/23 02:13:45;;;;;;;13.22;8.60;;;;;;;19.84;83.90;101613.98;1703501;84;21222;-90
2021/08/23 02:16:12;;;;;;;12.73;8.38;;;;;;;19.82;83.84;101611.95;1703189;84;21525;-90
2021/08/23 02:18:39;;;;;;;10.30;9.05;;;;;;;19.81;83.35;101619.05;1703462;84;20991;-92
2021/08/23 02:21:06;;;;;;;13.45;9.08;;;;;;;19.79;82.38;101620.97;1703807;84;21026;-94
2021/08/23 02:23:35;;;;;;;11.40;8.95;;;;;;;19.76;81.81;101619.92;1702132;84;21642;-90
2021/08/23 02:26:02;;;;;;;11.63;8.15;;;;;;;19.73;81.25;101621.99;1703256;84;20899;-91
2021/08/23 02:28:29;;;;;;;15.03;8.05;;;;;;;19.72;80.86;101625.62;1703343;84;21149;-89
2021/08/23 02:30:56;;;;;;;9.80;7.78;;;;;;;19.71;81.05;101623.46;1703257;84;21641;-89
2021/08/23 02:33:22;;;;;;;15.63;9.03;;;;;;;19.71;80.71;101620.83;1703270;84;20935;-88
2021/08/23 02:35:49;;;;;;;12.45;8.45;;;;;;;19.67;79.98;101625.17;1703001;84;20967;-89
2021/08/23 02:38:15;;;;;;;15.85;8.80;;;;;;;19.61;79.87;101624.41;1703069;84;21118;-90
2021/08/23 02:40:42;;;;;;;13.15;8.60;;;;;;;19.58;80.30;101628.16;1703430;84;21156;-92
2021/08/23 02:43:09;;;;;;;10.30;8.13;;;;;;;19.57;80.12;101629.11;1702998;83;21021;-91
2021/08/23 02:45:38;;;;;;;12.03;7.95;;;;;;;19.58;80.02;101628.63;1703407;84;21537;-90
2021/08/23 02:48:05;;;;;;;13.08;8.70;;;;;;;19.57;79.91;101629.11;1703194;84;21473;-88
2021/08/23 02:50:33;;;;;;;14.05;9.33;;;;;;;19.56;79.77;101628.75;1703233;84;20971;-89
2021/08/23 02:52:59;;;;;;;14.75;8.95;;;;;;;19.54;79.55;101630.22;1703255;84;21133;-88
2021/08/23 02:55:26;;;;;;;13.50;9.68;;;;;;;19.53;79.52;101624.59;1703472;84;21014;-89
2021/08/23 02:57:52;;;;;;;17.80;11.85;;;;;;;19.53;79.50;101631.17;1703185;84;20963;-90
2021/08/23 03:00:19;;;;;;;18.30;13.25;;;;;;;19.54;79.74;101628.91;1703256;84;20962;-90
2021/08/23 03:02:46;;;;;;;23.70;13.15;;;;;;;19.55;79.05;101632.38;1703332;84;21624;-89
2021/08/23 03:05:13;;;;;;;20.30;13.13;;;;;;;19.53;78.74;101628.55;1703105;84;21125;-88
2021/08/23 03:07:41;;;;;;;17.42;11.60;;;;;;;19.53;78.78;101633.81;1703318;84;21549;-90
2021/08/23 03:10:08;;;;;;;17.75;11.20;;;;;;;19.52;78.39;101630.02;1703008;84;20974;-89
2021/08/23 03:12:36;;;;;;;16.75;11.65;;;;;;;19.52;78.21;101628.70;1703140;84;20915;-90
2021/08/23 03:15:05;;;;;;;17.25;12.50;;;;;;;19.53;79.02;101632.97;1703095;84;21425;-88
2021/08/23 03:17:33;;;;;;;22.98;14.60;;;;;;;19.52;78.53;101630.84;1703143;84;21075;-89
2021/08/23 03:19:59;;;;;;;23.65;15.32;;;;;;;19.49;77.79;101628.48;1703157;84;20903;-91
2021/08/23 03:22:26;;;;;;;29.27;17.17;;;;;;;19.46;77.70;101630.05;1703084;84;21050;-90
2021/08/23 03:24:52;;;;;;;22.82;14.05;;;;;;;19.43;76.81;101636.09;1703148;84;20911;-89
2021/08/23 03:27:19;;;;;;;19.12;11.40;;;;;;;19.38;76.47;101640.39;1703318;84;20991;-91
2021/08/23 03:29:50;;;;;;;15.68;10.00;;;;;;;19.36;76.49;101634.92;1703256;84;21171;-90
2021/08/23 03:32:15;;;;;;;15.15;9.33;;;;;;;19.35;76.41;101634.56;1702523;84;20978;-90
2021/08/23 03:34:41;;;;;;;13.53;9.03;;;;;;;19.34;76.30;101641.62;1703104;84;21086;-89
2021/08/23 03:37:08;;;;;;;13.80;8.33;;;;;;;19.32;76.28;101643.56;1703198;84;21016;-88
2021/08/23 03:39:34;;;;;;;14.15;9.35;;;;;;;19.29;76.23;101647.78;1703114;84;21055;-89
2021/08/23 03:42:01;;;;;;;11.75;7.83;;;;;;;19.26;76.15;101641.95;1700919;84;21197;-89
2021/08/23 03:44:29;;;;;;;13.38;7.50;;;;;;;19.24;76.26;101649.16;1687678;85;21003;-89
2021/08/23 03:46:55;;;;;;;14.90;8.40;;;;;;;19.22;76.31;101646.64;1687812;85;21775;-89
2021/08/23 03:49:22;;;;;;;14.83;8.65;;;;;;;19.22;76.12;101646.64;1687982;85;20924;-88
2021/08/23 03:51:50;;;;;;;12.07;7.78;;;;;;;19.22;76.08;101646.64;1688146;85;20982;-89
2021/08/23 03:54:16;;;;;;;10.13;7.80;;;;;;;19.22;76.11;101641.38;1688029;85;21134;-89
2021/08/23 03:56:44;;;;;;;12.15;8.15;;;;;;;19.24;75.59;101646.53;1687926;85;21427;-89
2021/08/23 03:59:10;;;;;;;11.33;9.23;;;;;;;19.23;75.54;101643.53;1687906;85;21141;-89
2021/08/23 04:01:39;;;;;;;14.30;7.33;;;;;;;19.23;75.28;101643.53;1687941;85;20956;-87
2021/08/23 04:04:05;;;;;;;10.78;8.18;;;;;;;19.23;75.10;101647.00;1687950;85;21114;-88
2021/08/23 04:06:32;;;;;;;12.88;7.60;;;;;;;19.24;74.99;101648.65;1688012;85;21117;-88
2021/08/23 04:08:58;;;;;;;15.48;8.53;;;;;;;19.25;75.11;101650.80;1688078;85;21514;-88
2021/08/23 04:11:25;;;;;;;15.35;9.45;;;;;;;19.24;75.00;101648.65;1687775;85;20877;-90
2021/08/23 04:13:53;;;;;;;11.97;8.68;;;;;;;19.23;75.07;101649.64;1687800;85;20948;-87
2021/08/23 04:16:19;;;;;;;14.98;8.18;;;;;;;19.22;75.12;101644.02;1687663;85;21069;-86
2021/08/23 04:18:47;;;;;;;11.03;8.98;;;;;;;19.22;75.31;101647.13;1687932;85;21110;-87
2021/08/23 04:21:14;;;;;;;12.07;9.05;;;;;;;19.23;75.55;101640.91;1687732;85;21598;-86
2021/08/23 04:23:41;;;;;;;18.95;10.30;;;;;;;19.25;75.56;101642.42;1687907;85;20952;-87
2021/08/23 04:26:07;;;;;;;17.50;10.65;;;;;;;19.26;75.35;101640.16;1687710;85;21582;-90
2021/08/23 04:28:36;;;;;;;16.65;10.13;;;;;;;19.28;75.42;101636.89;1687802;85;21122;-90
2021/08/23 04:31:02;;;;;;;17.17;9.20;;;;;;;19.30;75.28;101634.14;1687536;85;21118;-90
2021/08/23 04:33:29;;;;;;;13.78;9.83;;;;;;;19.33;75.00;101637.83;1687628;85;21494;-93
2021/08/23 04:35:55;;;;;;;16.25;9.55;;;;;;;19.34;74.64;101637.67;1688074;85;20980;-89
2021/08/23 04:38:23;;;;;;;18.55;10.63;;;;;;;19.35;74.45;101634.09;1688850;85;20876;-91
2021/08/23 04:40:50;;;;;;;14.00;10.53;;;;;;;19.37;74.37;101632.14;1688137;85;21585;-88
2021/08/23 04:43:17;;;;;;;15.10;10.65;;;;;;;19.41;74.34;101631.42;1687936;83;21073;-90
2021/08/23 04:45:45;;;;;;;17.25;9.98;;;;;;;19.42;74.51;101629.16;1688008;84;20999;-87
2021/08/23 04:48:13;;;;;;;14.78;9.30;;;;;;;19.43;74.49;101631.62;1688418;85;21027;-91
2021/08/23 04:50:39;;;;;;;20.23;9.58;;;;;;;19.46;75.17;101632.68;1688294;85;20979;-88
2021/08/23 04:53:06;;;;;;;17.57;9.03;;;;;;;19.50;75.07;101635.39;1688054;85;21134;-86
2021/08/23 04:55:33;;;;;;;16.30;8.93;;;;;;;19.54;75.21;101638.12;1688483;85;21119;-87
2021/08/23 04:58:01;;;;;;;14.85;8.90;;;;;;;19.59;75.49;101638.20;1688403;85;21442;-88
2021/08/23 05:00:28;;;;;;;12.78;8.83;;;;;;;19.64;75.53;101636.82;1688798;85;21090;-90
2021/08/23 05:02:54;;;;;;;16.97;8.60;;;;;;;19.69;75.30;101636.43;1688689;85;20912;-90
2021/08/23 05:05:21;;;;;;;14.10;7.90;;;;;;;19.73;75.29;101641.27;1688018;85;20987;-92
2021/08/23 05:07:47;;;;;;;18.17;8.65;;;;;;;19.79;75.34;101639.40;1688045;85;21119;-90
2021/08/23 05:10:14;;;;;;;15.10;8.70;;;;;;;19.83;75.39;101637.33;1687935;85;20955;-88
2021/08/23 05:12:40;;;;;;;12.53;7.87;;;;;;;19.88;75.49;101637.73;1688336;85;20979;-88
2021/08/23 05:15:08;;;;;;;18.12;8.93;;;;;;;19.94;75.89;101639.84;1689137;85;20948;-89
2021/08/23 05:17:35;;;;;;;16.70;8.53;;;;;;;20.01;75.96;101647.52;1689031;85;21005;-90
2021/08/23 05:20:01;;;;;;;14.65;9.13;;;;;;;20.07;75.92;101636.43;1688585;85;21133;-87
2021/08/23 05:22:27;;;;;;;13.72;9.18;;;;;;;20.12;75.96;101639.50;1688451;85;21042;-89
2021/08/23 05:24:54;;;;;;;9.90;8.35;;;;;;;20.18;76.12;101634.14;1688303;85;20944;-87
2021/08/23 05:27:21;;;;;;;14.90;9.25;;;;;;;20.23;76.26;101643.29;1688088;85;21493;-88
2021/08/23 05:29:47;;;;;;;17.27;8.68;;;;;;;20.29;76.40;101641.48;1688117;85;20916;-88
2021/08/23 05:32:16;;;;;;;15.58;9.85;;;;;;;20.35;76.56;101644.87;1687971;85;21107;-88
2021/08/23 05:34:46;;;;;;;16.37;8.28;;;;;;;20.41;76.75;101648.73;1688108;85;21030;-89
2021/08/23 05:37:13;;;;;;;13.98;9.10;;;;;;;20.47;76.85;101635.83;1687854;84;21043;-88
2021/08/23 05:39:40;;;;;;;14.00;8.80;;;;;;;20.54;76.98;101634.77;1688741;85;20975;-90
2021/08/23 05:42:07;;;;;;;16.15;9.00;;;;;;;20.62;77.14;101633.56;1688732;85;21569;-89
2021/08/23 05:44:34;;;;;;;15.25;9.30;;;;;;;20.68;77.05;101633.50;1702158;83;21124;-92
2021/08/23 05:47:01;;;;;;;14.90;8.88;;;;;;;20.76;77.17;101640.20;1703241;84;20899;-89
2021/08/23 05:49:27;;;;;;;13.85;8.73;;;;;;;20.84;77.31;101638.50;1704022;84;20923;-91
2021/08/23 05:51:54;;;;;;;15.38;9.70;;;;;;;20.93;77.46;101640.27;1703589;84;20939;-88
2021/08/23 05:54:21;;;;;;;15.75;9.00;;;;;;;21.02;77.76;101631.50;1703351;84;22331;-87
2021/08/23 05:56:49;;;;;;;15.83;9.60;;;;;;;21.12;77.89;101639.41;1703348;84;21109;-89
2021/08/23 05:59:16;;;;;;;12.63;9.30;;;;;;;21.20;77.75;101638.67;1703263;84;21010;-88
2021/08/23 06:01:43;;;;;;;15.45;10.45;;;;;;;21.28;77.92;101638.78;1703596;84;20947;-88
2021/08/23 06:04:09;;;;;;;13.08;9.68;;;;;;;21.35;77.94;101640.67;1703956;84;20908;-89
2021/08/23 06:06:38;;;;;;;15.50;9.63;;;;;;;21.45;78.06;101640.13;1703268;84;20982;-89
2021/08/23 06:09:05;;;;;;;16.48;10.08;;;;;;;21.54;78.14;101633.13;1703355;84;21166;-90
2021/08/23 06:11:32;;;;;;;14.23;10.05;;;;;;;21.63;78.37;101634.38;1703128;84;21058;-88
2021/08/23 06:13:59;;;;;;;20.25;10.35;;;;;;;21.72;78.48;101633.16;1703047;84;20962;-88
2021/08/23 06:16:25;;;;;;;15.10;9.73;;;;;;;21.80;78.58;101632.74;1703209;84;21443;-89
2021/08/23 06:18:52;;;;;;;15.45;9.65;;;;;;;21.89;78.62;101631.87;1703677;84;21002;-92
2021/08/23 06:21:19;;;;;;;17.02;9.25;;;;;;;22.00;78.63;101636.95;1703190;84;21126;-88
2021/08/23 06:23:45;;;;;;;12.98;9.05;;;;;;;22.12;78.69;101643.66;1703380;84;21619;-93
2021/08/23 06:26:12;;;;;;;16.77;8.70;;;;;;;22.22;79.17;101638.28;1703718;84;20983;-87
2021/08/23 06:28:39;;;;;;;19.52;7.97;;;;;;;22.32;79.28;101633.74;1703258;84;20919;-90
2021/08/23 06:31:05;;;;;;;19.17;8.03;;;;;;;22.42;79.31;101633.65;1703876;84;20957;-89
2021/08/23 06:33:34;;;;;;;17.17;8.33;;;;;;;22.52;78.88;101633.06;1703776;84;21157;-91
2021/08/23 06:36:01;;;;;;;13.45;7.50;;;;;;;22.62;78.52;101634.60;1703348;84;21014;-87
2021/08/23 06:38:28;;;;;;;10.55;7.05;;;;;;;22.73;78.76;101636.69;1703476;84;20951;-92
2021/08/23 06:40:56;;;;;;;14.43;7.45;;;;;;;22.83;78.61;101632.95;1703199;84;21003;-84
2021/08/23 06:43:22;;;;;;;17.95;7.45;;;;;;;22.90;78.16;101635.81;1699151;83;21033;-88
2021/08/23 06:45:48;;;;;;;12.20;7.90;;;;;;;22.98;77.87;101630.54;1687973;85;21073;-90
2021/08/23 06:48:15;;;;;;;20.25;7.65;;;;;;;23.05;77.78;101628.92;1687947;85;21007;-89
2021/08/23 06:50:41;;;;;;;11.80;7.65;;;;;;;23.13;77.73;101632.43;1688041;85;21525;-90
2021/08/23 06:53:09;;;;;;;11.60;7.40;;;;;;;23.21;77.64;101630.32;1687776;85;21007;-87
2021/08/23 06:55:36;;;;;;;9.18;7.03;;;;;;;23.28;77.44;101633.16;1687971;85;21529;-88
2021/08/23 06:58:03;;;;;;;13.13;7.67;;;;;;;23.36;76.60;101635.34;1688013;85;21105;-87
2021/08/23 07:00:32;;;;;;;9.65;6.35;;;;;;;23.43;76.09;101642.17;1688405;85;20953;-95
2021/08/23 07:03:02;;;;;;;12.18;5.78;;;;;;;23.49;75.77;101634.42;1688068;85;20919;-93
2021/08/23 07:05:28;;;;;;;11.48;6.75;;;;;;;23.55;74.96;101631.61;1688521;85;20995;-87
2021/08/23 07:07:54;;;;;;;13.62;6.75;;;;;;;23.63;74.62;101628.51;1687901;85;20995;-86
2021/08/23 07:10:21;;;;;;;10.32;6.10;;;;;;;23.73;74.20;101628.84;1688230;85;21773;-89
2021/08/23 07:12:48;;;;;;;9.05;6.35;;;;;;;23.79;73.91;101634.33;1687950;85;20940;-86
2021/08/23 07:15:15;;;;;;;9.48;6.50;;;;;;;23.86;73.74;101629.20;1687949;85;33485;-89
2021/08/23 07:17:42;;;;;;;11.48;6.58;;;;;;;23.92;73.31;101629.38;1688225;85;20955;-90
2021/08/23 07:20:09;;;;;;;8.75;5.72;;;;;;;23.98;73.30;101634.02;1688224;85;21130;-85
2021/08/23 07:22:36;;;;;;;16.15;6.33;;;;;;;24.05;72.60;101641.66;1688379;85;21072;-87
2021/08/23 07:25:02;;;;;;;8.20;4.83;;;;;;;24.13;71.88;101646.15;1688324;85;20959;-87
2021/08/23 07:27:29;;;;;;;6.75;5.15;;;;;;;24.20;70.91;101644.50;1688153;85;21549;-88
2021/08/23 07:29:56;;;;;;;10.72;5.20;;;;;;;24.28;69.76;101644.52;1688507;85;21960;-90
2021/08/23 07:32:22;;;;;;;11.75;5.58;;;;;;;24.36;69.46;101644.50;1687975;85;21003;-84
2021/08/23 07:34:49;;;;;;;11.43;6.45;;;;;;;24.47;69.09;101647.31;1687999;85;21105;-84
2021/08/23 07:37:16;;;;;;;8.43;5.37;;;;;;;24.54;68.30;101645.12;1688214;85;21567;-87
2021/08/23 07:39:43;;;;;;;7.83;5.15;;;;;;;24.63;67.20;101633.50;1688171;85;20924;-88
2021/08/23 07:42:10;;;;;;;6.83;4.80;;;;;;;24.72;65.20;101636.98;1687876;85;21065;-83
2021/08/23 07:44:37;;;;;;;9.73;5.28;;;;;;;24.80;63.93;101638.77;1688019;83;21019;-86
2021/08/23 07:47:05;;;;;;;7.08;5.25;;;;;;;24.87;63.38;101640.63;1688042;85;21451;-85
2021/08/23 07:49:32;;;;;;;7.37;5.45;;;;;;;24.93;62.87;101637.28;1688298;85;21428;-86
2021/08/23 07:51:59;;;;;;;8.88;5.00;;;;;;;24.99;62.29;101635.76;1688187;85;21502;-86
2021/08/23 07:54:26;;;;;;;7.67;5.62;;;;;;;25.06;61.16;101632.75;1687609;85;21234;-90
2021/08/23 07:56:52;;;;;;;8.63;5.72;;;;;;;25.13;59.60;101635.06;1687791;85;20912;-84
2021/08/23 07:59:19;;;;;;;10.38;5.83;;;;;;;25.19;57.23;101635.20;1688209;85;21100;-89
2021/08/23 08:01:45;;;;;;;8.15;5.62;;;;;;;25.23;56.55;101628.55;1687957;85;20884;-82
2021/08/23 08:04:13;;;;;;;5.53;4.90;;;;;;;25.28;57.02;101625.35;1688119;85;21505;-87
2021/08/23 08:06:44;;;;;;;9.13;5.83;;;;;;;25.33;54.81;101627.50;1688036;85;20959;-86
2021/08/23 08:09:12;;;;;;;10.48;6.00;;;;;;;25.38;54.25;101628.62;1688135;85;21003;-86
2021/08/23 08:11:38;;;;;;;7.90;5.12;;;;;;;25.46;54.49;101626.44;1687766;85;21135;-87
2021/08/23 08:14:05;;;;;;;8.65;5.60;;;;;;;25.54;54.80;101625.08;1688112;85;21447;-85
2021/08/23 08:16:33;;;;;;;9.40;6.03;;;;;;;25.61;55.03;101620.23;1688169;85;21084;-83
2021/08/23 08:19:00;;;;;;;12.15;5.95;;;;;;;25.69;52.78;101621.98;1688071;85;21471;-87
2021/08/23 08:21:27;;;;;;;9.75;5.70;;;;;;;25.77;51.56;101624.61;1687901;85;20972;-89
2021/08/23 08:23:53;;;;;;;10.43;6.08;;;;;;;25.83;51.35;101625.72;1688263;85;21109;-86
2021/08/23 08:26:21;;;;;;;10.10;6.40;;;;;;;25.88;51.92;101617.53;1687509;85;20960;-85
2021/08/23 08:28:49;;;;;;;9.20;6.55;;;;;;;25.96;51.40;101622.80;1687871;85;21047;-83
2021/08/23 08:31:16;;;;;;;8.03;6.35;;;;;;;26.04;50.49;101621.89;1687974;85;21055;-84
2021/08/23 08:33:43;;;;;;;7.22;6.35;;;;;;;26.12;49.15;101616.52;1688012;85;21015;-84
2021/08/23 08:36:09;;;;;;;9.20;6.15;;;;;;;26.17;49.14;101614.17;1688144;85;21098;-84
2021/08/23 08:38:37;;;;;;;7.67;6.60;;;;;;;26.26;49.43;101619.24;1688010;85;21082;-88
2021/08/23 08:41:04;;;;;;;11.38;5.67;;;;;;;26.37;48.54;101614.00;1687929;85;20941;-83
2021/08/23 08:43:32;;;;;;;9.63;6.22;;;;;;;26.39;49.48;101610.64;1688438;84;21023;-84
2021/08/23 08:45:58;;;;;;;10.75;5.70;;;;;;;26.46;50.68;101609.41;1703672;84;20946;-84
2021/08/23 08:48:26;;;;;;;6.42;5.08;;;;;;;26.51;51.68;101609.21;1703456;84;21135;-80
2021/08/23 08:50:53;;;;;;;6.92;5.53;;;;;;;26.60;51.68;101605.45;1677245;84;20907;-83
2021/08/23 08:53:19;;;;;;;8.25;5.53;;;;;;;26.70;50.77;101605.18;1703631;84;20958;-84
2021/08/23 08:55:49;;;;;;;10.43;5.75;;;;;;;26.75;49.96;101604.11;1703439;84;21438;-91
2021/08/23 08:58:16;;;;;;;17.50;6.28;;;;;;;26.72;50.44;101602.65;1703733;84;20927;-85
2021/08/23 09:00:44;;;;;;;10.20;6.30;;;;;;;26.73;51.37;101604.81;1677796;84;21133;-86
2021/08/23 09:03:10;;;;;;;6.75;5.33;;;;;;;26.73;51.13;101604.31;1704798;84;20943;-82
2021/08/23 09:05:43;;;;;;;7.42;5.03;;;;;;;26.79;51.66;101596.91;1703348;84;21015;-83
2021/08/23 09:08:10;;;;;;;7.60;6.03;;;;;;;26.92;51.18;101600.29;1703869;84;21110;-79
2021/08/23 09:10:42;;;;;;;6.67;5.55;;;;;;;27.02;50.33;101593.34;1678577;84;20993;-79
2021/08/23 09:13:13;;;;;;;5.55;4.97;;;;;;;27.09;50.58;101600.39;1703934;84;20959;-81
2021/08/23 09:15:55;;;;;;;5.47;4.85;;;;;;;27.15;49.60;101601.00;1703855;84;20975;-80
2021/08/23 09:18:24;;;;;;;7.42;6.22;;;;;;;27.17;48.93;101602.96;1703746;84;20876;-83
2021/08/23 09:21:04;;;;;;;7.33;5.37;;;;;;;27.18;49.30;101604.62;1703317;84;20912;-82
2021/08/23 09:23:43;;;;;;;11.93;5.67;;;;;;;27.16;48.13;101591.14;1702992;84;21509;-80
2021/08/23 09:26:13;;;;;;;12.25;5.22;;;;;;;27.05;48.46;101591.14;1703075;84;21334;-82
2021/08/23 09:28:42;;;;;;;7.70;5.53;;;;;;;27.02;48.96;101597.34;1703328;84;20979;-81
2021/08/23 09:31:14;;;;;;;6.62;5.00;;;;;;;27.09;49.44;101591.06;1703598;84;21019;-82
2021/08/23 09:33:45;;;;;;;6.08;4.50;;;;;;;27.23;48.57;101596.05;1676397;84;21023;-80
2021/08/23 09:36:20;;;;;;;6.95;4.40;;;;;;;27.34;47.59;101600.91;1703068;84;21516;-84
2021/08/23 09:39:08;;;;;;;6.67;4.75;;;;;;;27.46;46.54;101594.60;1703366;84;21184;-82
2021/08/23 09:41:40;;;;;;;5.95;4.65;;;;;;;27.56;45.99;101599.13;1703298;84;20966;-80
2021/08/23 09:44:13;;;;;;;10.13;4.83;;;;;;;27.61;46.28;101598.87;1703611;83;21078;-89
2021/08/23 09:46:43;;;;;;;9.65;4.22;;;;;;;27.76;46.53;101592.95;1703502;84;20927;-78
2021/08/23 09:49:13;;;;;;;6.58;4.97;;;;;;;27.90;46.43;101594.41;1704339;84;21105;-81
2021/08/23 09:51:44;;;;;;;6.83;5.12;;;;;;;28.02;46.06;101593.70;1704236;84;21959;-87
2021/08/23 09:54:14;;;;;;;8.25;4.45;;;;;;;28.33;44.64;101596.05;1703600;84;20959;-83
2021/08/23 09:56:53;;;;;;;5.80;4.30;;;;;;;29.22;43.25;101584.42;1703522;84;21434;-85
2021/08/23 09:59:25;;;;;;;6.12;4.70;;;;;;;30.35;41.91;101579.00;1703373;84;21006;-80
2021/08/23 10:01:57;;;;;;;5.00;4.35;;;;;;;31.51;39.01;101576.36;1703338;84;20931;-80
2021/08/23 10:04:24;;;;;;;6.78;4.40;;;;;;;32.56;36.94;101575.45;1703581;84;21235;-83
2021/08/23 10:06:53;;;;;;;6.10;4.45;;;;;;;33.65;34.63;101566.73;1703290;84;20899;-81
2021/08/23 10:09:27;;;;;;;10.80;4.70;;;;;;;34.59;32.89;101569.72;1703274;84;20931;-82
2021/08/23 10:11:58;;;;;;;6.40;4.20;;;;;;;35.41;31.09;101572.48;1703427;84;20939;-84
2021/08/23 10:14:26;;;;;;;9.08;4.65;;;;;;;36.06;29.94;101574.66;1703632;84;21081;-87
2021/08/23 10:16:53;;;;;;;4.47;3.90;;;;;;;36.37;29.08;101571.88;1703696;84;21202;-82
2021/08/23 10:19:21;;;;;;;11.15;4.37;;;;;;;36.64;28.45;101572.79;1703647;84;20955;-83
2021/08/23 10:21:50;;;;;;;7.65;4.30;;;;;;;37.20;27.97;101558.04;1703852;84;21573;-81
2021/08/23 10:24:29;;;;;;;8.05;3.95;;;;;;;37.51;27.39;101557.80;1703414;84;21584;-84
2021/08/23 10:26:57;;;;;;;6.83;3.98;;;;;;;37.24;28.22;101557.00;1703795;84;20855;-80
2021/08/23 10:29:23;;;;;;;4.85;4.28;;;;;;;36.56;28.33;101553.78;1703835;84;21120;-86
2021/08/23 10:31:50;;;;;;;7.70;3.87;;;;;;;35.84;29.17;101554.84;1703274;84;20955;-83
2021/08/23 10:34:21;;;;;;;6.30;3.87;;;;;;;35.08;30.46;101554.83;1703650;84;21019;-81
2021/08/23 10:36:50;;;;;;;6.08;4.50;;;;;;;34.43;30.77;101548.36;1703732;84;21635;-81
2021/08/23 10:39:21;;;;;;;5.10;4.60;;;;;;;33.81;31.54;101557.16;1704618;84;21593;-82
2021/08/23 10:41:50;;;;;;;5.62;3.95;;;;;;;33.24;32.33;101552.73;1704548;84;21709;-85
2021/08/23 10:44:32;;;;;;;9.68;4.22;;;;;;;32.83;33.26;101551.30;1702282;83;21593;-83
2021/08/23 10:47:10;;;;;;;9.95;5.00;;;;;;;32.48;34.69;101547.03;1688173;85;21055;-82
2021/08/23 10:49:46;;;;;;;8.03;5.20;;;;;;;32.09;35.21;101549.59;1688371;85;21023;-82
2021/08/23 10:52:15;;;;;;;8.90;4.62;;;;;;;31.83;35.47;101550.62;1688668;85;21510;-84
2021/08/23 10:54:46;;;;;;;5.42;4.37;;;;;;;31.63;36.09;101553.97;1689036;85;21807;-80
2021/08/23 10:57:14;;;;;;;;;;;;;;;31.54;36.06;101550.43;1691141;85;20936;-81
2021/08/23 10:59:46;;;;;;;7.22;4.22;;;;;;;31.38;36.34;101543.19;1688183;85;20430;-79
2021/08/23 11:02:35;;;;;;;6.55;4.95;;;;;;;31.12;36.88;101543.84;1688695;85;21026;-80
2021/08/23 11:05:16;;;;;;;5.87;4.60;;;;;;;30.93;37.89;101537.01;1688354;85;20900;-85
2021/08/23 11:07:45;;;;;;;6.00;5.08;;;;;;;30.80;38.52;101538.92;1688885;85;21164;-82
2021/08/23 11:10:16;;;;;;;8.50;5.03;;;;;;;30.68;38.70;101536.09;1667240;85;20995;-82
2021/08/23 11:12:51;;;;;;;11.33;5.08;;;;;;;30.71;38.91;101534.84;1689344;85;20957;-89
2021/08/23 11:15:30;;;;;;;5.97;4.35;;;;;;;30.81;39.16;101533.36;1688107;85;20995;-82
2021/08/23 11:18:11;;;;;;;5.17;4.62;;;;;;;30.83;38.78;101533.12;1688500;85;21059;-82
2021/08/23 11:20:41;;;;;;;7.92;5.05;;;;;;;30.76;38.47;101529.14;1688948;85;21115;-81
2021/08/23 11:23:14;;;;;;;6.10;4.85;;;;;;;30.64;38.97;101530.84;1686888;84;20920;-82